Fry, Georgia
Current Conditions -  °F | °C
As of 11:15 AM on Wednesday 28 Jan 2015 (Local Time) from KRZR Reporting Station
Clear Clear  
Wind Chill: 32°   Ceiling: Unl
Heat Index: 36°   Visibility: 10mi
Dew Point: 12°   Wind: 5mph
Humidity: 38%   Direction: 30°NNE
Pressure: 30.35"   Gusts: NA
Location:  34.9342°N, 84.3792°W
Report Text: KRZR 281615Z AUTO 03004KT 10SM CLR 02/M11 A3035 RMK
Loading
Personal Weather Stations






























Interactive Weather Map New forecast layout! Learn more

10-Day Weather Forecast

Advertisements
Track Severe Weather on mobile